Time;durP1;ratioP1;P1;durP2;ratioP2;P2;SDS_P1;SDS_P2;PMS_P1;PMS_P2;Temp;Humidity;BMP_temperature;BMP_pressure;BME280_temperature;BME280_humidity;BME280_pressure;Samples;Min_cycle;Max_cycle;Signal;HPM_P1;HPM_P2
2022/05/05 00:01:59;;;;;;;4.70;4.23;;;;;;;13.38;84.30;96796.03;5044085;28;20253;-51
2022/05/05 00:04:27;;;;;;;4.87;4.47;;;;;;;13.39;84.35;96796.88;5044369;28;20239;-50
2022/05/05 00:06:54;;;;;;;5.23;4.73;;;;;;;13.46;84.03;96788.09;5043201;28;20233;-50
2022/05/05 00:09:20;;;;;;;4.80;4.40;;;;;;;13.46;84.32;96792.59;5042435;28;20517;-52
2022/05/05 00:14:32;;;;;;;4.43;4.13;;;;;;;13.46;84.65;96787.28;5042858;28;20203;-51
2022/05/05 00:17:00;;;;;;;5.10;4.63;;;;;;;13.43;84.89;96787.56;5042148;28;20211;-52
2022/05/05 00:19:30;;;;;;;4.47;4.17;;;;;;;13.43;84.84;96782.25;5043001;28;20215;-51
2022/05/05 00:21:56;;;;;;;4.50;4.10;;;;;;;13.44;84.47;96789.25;5042306;28;20215;-51
2022/05/05 00:24:23;;;;;;;4.80;4.50;;;;;;;13.56;83.85;96782.69;5042091;28;20214;-52
2022/05/05 00:26:50;;;;;;;5.03;4.73;;;;;;;13.54;83.76;96779.34;5042152;28;20211;-51
2022/05/05 00:29:16;;;;;;;4.77;4.47;;;;;;;13.62;83.29;96778.53;5042241;28;20664;-51
2022/05/05 00:31:43;;;;;;;5.20;4.80;;;;;;;13.60;83.30;96767.25;5040573;28;20239;-51
2022/05/05 00:34:11;;;;;;;4.53;4.23;;;;;;;13.51;84.04;96771.69;5042298;28;20215;-50
2022/05/05 00:36:39;;;;;;;4.77;4.47;;;;;;;13.52;84.25;96765.38;5031616;28;20204;-52
2022/05/05 00:39:07;;;;;;;4.47;4.17;;;;;;;13.50;84.70;96767.34;5042157;28;20236;-52
2022/05/05 00:41:34;;;;;;;5.03;4.53;;;;;;;13.50;84.62;96763.88;5041306;28;20207;-50
2022/05/05 00:44:03;;;;;;;4.83;4.43;;;;;;;13.46;84.17;96763.38;5041602;28;20207;-51
2022/05/05 00:46:29;;;;;;;4.70;4.40;;;;;;;13.51;83.94;96769.03;5042399;28;20207;-51
2022/05/05 00:48:56;;;;;;;4.90;4.60;;;;;;;13.48;83.83;96769.34;5051019;28;20238;-50
2022/05/05 00:51:23;;;;;;;4.80;4.47;;;;;;;13.49;83.61;96765.69;5053392;28;20208;-52
2022/05/05 00:53:51;;;;;;;4.27;3.97;;;;;;;13.54;82.96;96776.69;5051614;28;20211;-52
2022/05/05 00:56:18;;;;;;;4.70;4.40;;;;;;;13.49;83.69;96771.03;5052131;28;20212;-51
2022/05/05 00:58:46;;;;;;;4.27;3.90;;;;;;;13.55;83.04;96777.50;5051110;28;20204;-58
2022/05/05 01:01:15;;;;;;;4.47;4.07;;;;;;;13.55;83.10;96778.34;5049130;28;20198;-52
2022/05/05 01:03:42;;;;;;;4.60;4.20;;;;;;;13.54;82.61;96773.19;5038104;28;20238;-52
2022/05/05 01:06:08;;;;;;;4.47;4.17;;;;;;;13.56;82.90;96772.06;5049624;28;20211;-52
2022/05/05 01:08:36;;;;;;;4.50;4.20;;;;;;;13.53;83.30;96771.53;5053303;28;20235;-51
2022/05/05 01:11:04;;;;;;;4.80;4.50;;;;;;;13.49;83.73;96770.19;5043992;28;20208;-52
2022/05/05 01:13:32;;;;;;;4.53;4.23;;;;;;;13.46;83.92;96774.00;5041185;28;20204;-50
2022/05/05 01:16:00;;;;;;;4.40;4.10;;;;;;;13.46;83.96;96771.34;5041952;28;20211;-51
2022/05/05 01:18:26;;;;;;;4.90;4.57;;;;;;;13.44;84.19;96770.66;5041931;28;20195;-51
2022/05/05 01:20:54;;;;;;;4.70;4.40;;;;;;;13.43;84.00;96771.63;5041284;28;20192;-52
2022/05/05 01:23:24;;;;;;;5.43;4.60;;;;;;;13.40;83.81;96777.25;5041137;28;21434;-51
2022/05/05 01:28:41;;;;;;;4.20;3.97;;;;;;;13.37;84.00;96793.50;5041282;28;20326;-52
2022/05/05 01:31:08;;;;;;;4.40;4.10;;;;;;;13.35;84.10;96784.88;5041964;28;20211;-50
2022/05/05 01:33:37;;;;;;;4.07;3.77;;;;;;;13.37;84.03;96782.88;5041088;28;20223;-51
2022/05/05 01:36:06;;;;;;;4.23;4.03;;;;;;;13.45;83.30;96791.75;5040551;28;20666;-51
2022/05/05 01:38:37;;;;;;;4.30;4.00;;;;;;;13.36;84.32;96791.84;5040746;28;20747;-51
2022/05/05 01:41:04;;;;;;;4.37;4.07;;;;;;;13.36;83.88;96789.19;5041013;28;20786;-51
2022/05/05 01:43:31;;;;;;;4.43;4.13;;;;;;;13.30;84.53;96797.78;5044916;28;20231;-51
2022/05/05 01:45:58;;;;;;;4.10;3.90;;;;;;;13.25;85.31;96795.59;5044839;28;20203;-50
2022/05/05 01:48:24;;;;;;;4.30;4.00;;;;;;;13.27;85.02;96795.44;5045703;28;20257;-52
2022/05/05 01:50:51;;;;;;;4.70;3.80;;;;;;;13.25;84.83;96792.94;5045480;28;20203;-52
2022/05/05 01:53:17;;;;;;;3.80;3.60;;;;;;;13.26;84.76;96797.25;5044879;28;20207;-51
2022/05/05 01:55:45;;;;;;;4.00;3.70;;;;;;;13.26;84.02;96794.59;5045379;28;20631;-50
2022/05/05 01:58:12;;;;;;;3.60;3.40;;;;;;;13.24;84.44;96798.41;5045530;28;20547;-51
2022/05/05 02:00:39;;;;;;;4.00;3.70;;;;;;;13.19;84.46;96795.38;5046976;28;20214;-51
2022/05/05 02:03:12;;;;;;;3.70;3.40;;;;;;;13.12;85.46;96795.16;5068508;28;20206;-50
2022/05/05 02:05:39;;;;;;;3.50;3.30;;;;;;;13.13;85.00;96794.19;5068230;28;20188;-56
2022/05/05 02:08:06;;;;;;;3.60;3.40;;;;;;;13.10;85.32;96802.47;5058859;28;20283;-51
2022/05/05 02:10:34;;;;;;;3.50;3.30;;;;;;;13.06;85.58;96802.91;5063478;28;20207;-50
2022/05/05 02:13:02;;;;;;;3.40;3.20;;;;;;;13.12;85.70;96802.31;5066567;28;20210;-51
2022/05/05 02:15:29;;;;;;;4.00;3.73;;;;;;;13.09;85.27;96794.63;5075887;28;20187;-51
2022/05/05 02:17:56;;;;;;;3.57;3.33;;;;;;;13.08;85.52;96798.25;5070926;28;20187;-52
2022/05/05 02:20:23;;;;;;;3.60;3.30;;;;;;;13.06;85.81;96802.91;5050101;28;20257;-51
2022/05/05 02:22:51;;;;;;;3.53;3.33;;;;;;;13.05;85.73;96793.25;5064525;28;20196;-51
2022/05/05 02:25:18;;;;;;;3.57;3.37;;;;;;;13.03;86.25;96796.09;5066583;28;20204;-51
2022/05/05 02:27:49;;;;;;;3.63;3.33;;;;;;;13.04;85.80;96792.41;5067842;28;20214;-52
2022/05/05 02:30:17;;;;;;;3.43;3.23;;;;;;;13.17;84.88;96794.72;5072054;28;20227;-51
2022/05/05 02:32:45;;;;;;;3.63;3.40;;;;;;;13.06;85.82;96784.31;5066417;28;20208;-51
2022/05/05 02:35:13;;;;;;;3.50;3.30;;;;;;;13.08;85.54;96787.63;5045953;28;20199;-50
2022/05/05 02:40:23;;;;;;;3.40;3.20;;;;;;;13.04;85.48;96779.13;5044649;28;20276;-51
2022/05/05 02:42:50;;;;;;;3.50;3.20;;;;;;;13.01;86.14;96791.88;5044074;28;20204;-52
2022/05/05 02:45:18;;;;;;;3.60;3.30;;;;;;;13.02;85.79;96789.09;5034002;28;20293;-52
2022/05/05 02:47:47;;;;;;;3.60;3.30;;;;;;;12.96;86.63;96782.59;5043823;28;20203;-51
2022/05/05 02:50:14;;;;;;;3.20;3.00;;;;;;;13.02;85.91;96782.94;5044213;28;20227;-51
2022/05/05 02:52:40;;;;;;;3.50;3.30;;;;;;;13.03;86.04;96787.28;5043875;28;20199;-51
2022/05/05 02:55:08;;;;;;;3.90;3.30;;;;;;;12.98;86.28;96782.41;5043416;28;20221;-51
2022/05/05 02:57:35;;;;;;;3.30;3.10;;;;;;;12.98;86.10;96777.94;5043801;28;20212;-51
2022/05/05 03:00:02;;;;;;;5.10;3.20;;;;;;;12.94;86.33;96776.59;5044066;28;20207;-51
2022/05/05 03:02:31;;;;;;;3.50;3.30;;;;;;;13.01;85.33;96773.31;5043769;28;20195;-51
2022/05/05 03:04:58;;;;;;;3.90;3.60;;;;;;;12.97;85.35;96768.31;5043407;28;20674;-51
2022/05/05 03:07:25;;;;;;;3.53;3.33;;;;;;;12.96;85.63;96766.66;5043011;28;20632;-51
2022/05/05 03:09:51;;;;;;;3.30;3.10;;;;;;;12.87;85.78;96770.22;5043085;28;20671;-52
2022/05/05 03:12:17;;;;;;;4.40;3.20;;;;;;;12.84;86.33;96781.16;5043364;28;20218;-50
2022/05/05 03:14:46;;;;;;;3.10;3.00;;;;;;;12.75;88.99;96771.44;5043661;28;20214;-51
2022/05/05 03:17:14;;;;;;;3.80;3.50;;;;;;;12.66;89.75;96775.03;5043744;28;20258;-51
2022/05/05 03:19:42;;;;;;;3.77;3.57;;;;;;;12.67;89.53;96771.41;5043460;28;20212;-52
2022/05/05 03:22:09;;;;;;;3.60;3.30;;;;;;;12.71;89.18;96769.28;5044362;28;20272;-52
2022/05/05 03:24:35;;;;;;;3.70;3.40;;;;;;;12.62;89.01;96768.34;5043331;28;20211;-50
2022/05/05 03:27:04;;;;;;;3.97;3.60;;;;;;;12.59;90.26;96768.66;5043726;28;20214;-52
2022/05/05 03:29:31;;;;;;;3.70;3.40;;;;;;;12.62;90.36;96759.56;5043223;28;20235;-51
2022/05/05 03:31:59;;;;;;;3.83;3.57;;;;;;;12.62;90.40;96765.69;5043570;28;20199;-50
2022/05/05 03:34:27;;;;;;;3.80;3.50;;;;;;;12.65;90.00;96772.53;5043246;28;20238;-50
2022/05/05 03:36:55;;;;;;;3.73;3.53;;;;;;;12.58;90.44;96766.16;5043068;28;20215;-51
2022/05/05 03:39:22;;;;;;;3.70;3.50;;;;;;;12.61;89.71;96764.03;5043695;28;20210;-51
2022/05/05 03:41:49;;;;;;;3.83;3.53;;;;;;;12.61;90.02;96771.19;5042879;28;20204;-50
2022/05/05 03:44:16;;;;;;;3.40;3.10;;;;;;;12.60;90.12;96772.16;5043184;28;20195;-51
2022/05/05 03:46:42;;;;;;;3.50;3.30;;;;;;;12.60;90.05;96766.84;5042949;28;20200;-51
2022/05/05 03:49:10;;;;;;;3.60;3.40;;;;;;;12.53;91.46;96768.44;5042708;28;20238;-51
2022/05/05 03:51:37;;;;;;;3.33;3.13;;;;;;;12.55;91.13;96772.59;5043009;28;20236;-51
2022/05/05 03:54:06;;;;;;;3.57;3.30;;;;;;;12.48;91.57;96776.84;5042521;28;20207;-50
2022/05/05 03:56:32;;;;;;;3.70;3.43;;;;;;;12.47;91.54;96772.53;5042869;28;20195;-51
2022/05/05 03:58:59;;;;;;;3.57;3.27;;;;;;;12.44;92.24;96772.81;5042909;28;20219;-51
2022/05/05 04:01:26;;;;;;;4.30;4.00;;;;;;;12.44;91.58;96772.81;5042779;28;20567;-51
2022/05/05 04:03:52;;;;;;;3.93;3.63;;;;;;;12.37;93.25;96772.59;5041887;28;20250;-51
2022/05/05 04:06:20;;;;;;;3.47;3.27;;;;;;;12.32;93.80;96784.66;5042378;28;20229;-51
2022/05/05 04:08:46;;;;;;;3.70;3.50;;;;;;;12.33;93.19;96781.00;5041940;28;20214;-50
2022/05/05 04:11:14;;;;;;;3.33;3.13;;;;;;;12.35;93.30;96787.00;5042925;28;20539;-51
2022/05/05 04:13:41;;;;;;;3.20;3.00;;;;;;;12.33;93.60;96786.31;5041860;28;20210;-52
2022/05/05 04:16:08;;;;;;;9.30;7.47;;;;;;;12.27;94.91;96786.91;5032036;28;20584;-52
2022/05/05 04:18:35;;;;;;;4.00;3.80;;;;;;;12.31;93.82;96789.13;5057204;28;20200;-51
2022/05/05 04:21:01;;;;;;;3.90;3.60;;;;;;;12.35;93.82;96792.31;5059542;28;20214;-52
2022/05/05 04:23:28;;;;;;;3.10;2.90;;;;;;;12.35;93.36;96793.16;5057929;28;20184;-51
2022/05/05 04:25:55;;;;;;;3.80;3.50;;;;;;;12.34;93.55;96796.78;5043861;28;20215;-51
2022/05/05 04:28:23;;;;;;;3.50;3.20;;;;;;;12.36;93.19;96791.34;5042635;28;20211;-52
2022/05/05 04:30:50;;;;;;;3.50;3.20;;;;;;;12.33;94.01;96792.44;5042148;28;20258;-51
2022/05/05 04:33:16;;;;;;;3.60;3.30;;;;;;;12.39;93.61;96793.69;5041369;28;20626;-51
2022/05/05 04:35:43;;;;;;;3.77;3.50;;;;;;;12.42;93.54;96791.56;5041656;28;21433;-51
2022/05/05 04:38:09;;;;;;;4.07;3.77;;;;;;;12.40;93.38;96797.97;5031561;28;20222;-51
2022/05/05 04:40:36;;;;;;;3.47;3.27;;;;;;;12.42;93.66;96801.34;5030850;28;20199;-51
2022/05/05 04:43:02;;;;;;;3.50;3.30;;;;;;;12.43;93.40;96803.00;5041614;28;20576;-50
2022/05/05 04:45:30;;;;;;;3.57;3.33;;;;;;;12.46;93.14;96795.59;5041193;28;20207;-51
2022/05/05 04:47:57;;;;;;;3.80;3.60;;;;;;;12.44;94.35;96800.19;5042299;28;20203;-52
2022/05/05 04:50:23;;;;;;;3.87;3.57;;;;;;;12.46;93.92;96802.72;5041928;28;20242;-53
2022/05/05 04:52:52;;;;;;;9.53;3.80;;;;;;;12.41;95.20;96804.97;5041681;28;20545;-51
2022/05/05 04:55:18;;;;;;;3.83;3.53;;;;;;;12.41;95.04;96804.97;5041963;28;20199;-51
2022/05/05 04:57:45;;;;;;;4.33;3.80;;;;;;;12.42;94.73;96806.63;5041925;28;20215;-50
2022/05/05 05:00:12;;;;;;;4.20;3.90;;;;;;;12.48;94.93;96803.38;5041960;28;20204;-51
2022/05/05 05:02:40;;;;;;;4.30;3.90;;;;;;;12.47;95.68;96810.50;5041590;28;20203;-52
2022/05/05 05:05:07;;;;;;;4.03;3.60;;;;;;;12.47;95.58;96799.03;5040945;28;20236;-51
2022/05/05 05:07:34;;;;;;;4.33;3.93;;;;;;;12.47;94.71;96793.75;5041172;28;20631;-51
2022/05/05 05:10:01;;;;;;;3.90;3.60;;;;;;;12.52;95.15;96799.44;5041236;28;20246;-50
2022/05/05 05:12:27;;;;;;;4.00;3.70;;;;;;;12.58;95.76;96800.63;5041053;28;20208;-51
2022/05/05 05:14:53;;;;;;;4.03;3.80;;;;;;;12.57;96.13;96802.50;5040916;28;20214;-51
2022/05/05 05:17:20;;;;;;;3.60;3.40;;;;;;;12.58;96.11;96797.97;5040092;28;20899;-51
2022/05/05 05:19:48;;;;;;;4.47;4.17;;;;;;;12.64;96.37;96792.94;5041206;28;20230;-51
2022/05/05 05:22:14;;;;;;;4.43;4.03;;;;;;;12.70;94.35;96800.28;5041791;28;20203;-50
2022/05/05 05:24:41;;;;;;;4.13;3.67;;;;;;;12.73;94.03;96792.00;5041750;28;20203;-52
2022/05/05 05:27:08;;;;;;;4.20;3.90;;;;;;;12.78;93.54;96795.06;5041487;28;20246;-52
2022/05/05 05:29:34;;;;;;;4.63;4.33;;;;;;;12.81;93.50;96797.41;5041432;28;20227;-51
2022/05/05 05:32:03;;;;;;;4.53;4.20;;;;;;;12.85;93.57;96797.91;5041496;28;20213;-52
2022/05/05 05:34:30;;;;;;;4.70;4.33;;;;;;;12.92;93.69;96802.47;5042420;28;20256;-51
2022/05/05 05:36:58;;;;;;;4.73;4.33;;;;;;;12.91;93.32;96803.44;5041974;28;20234;-51
2022/05/05 05:39:24;;;;;;;5.03;4.60;;;;;;;12.93;92.93;96811.28;5040801;28;20270;-50
2022/05/05 05:41:51;;;;;;;4.30;4.00;;;;;;;13.00;92.80;96812.31;5040612;28;20199;-51
2022/05/05 05:44:20;;;;;;;4.50;4.20;;;;;;;12.95;92.75;96812.78;5041225;28;20203;-51
2022/05/05 05:46:47;;;;;;;4.53;4.13;;;;;;;13.02;92.79;96814.81;5041480;28;20557;-51
2022/05/05 05:49:13;;;;;;;4.40;4.10;;;;;;;13.04;91.60;96818.16;5041566;28;20547;-51
2022/05/05 05:51:42;;;;;;;4.50;4.20;;;;;;;12.95;91.52;96815.44;5041126;28;20250;-52
2022/05/05 05:54:10;;;;;;;4.97;4.57;;;;;;;13.02;92.77;96809.50;5040510;28;20685;-51
2022/05/05 05:56:38;;;;;;;4.93;4.53;;;;;;;12.98;90.99;96824.91;5040809;28;20200;-52
2022/05/05 05:59:05;;;;;;;4.40;4.10;;;;;;;13.00;92.94;96833.56;5040977;28;20223;-50
2022/05/05 06:04:17;;;;;;;4.73;4.43;;;;;;;13.02;92.41;96826.25;5040756;28;20242;-50
2022/05/05 06:06:43;;;;;;;4.67;4.17;;;;;;;13.12;91.70;96836.81;5041621;28;20547;-50
2022/05/05 06:09:11;;;;;;;4.30;4.00;;;;;;;13.17;91.27;96837.19;5041289;28;20200;-52
2022/05/05 06:11:38;;;;;;;4.27;4.07;;;;;;;13.19;90.91;96843.19;5040825;28;20231;-50
2022/05/05 06:14:05;;;;;;;4.87;4.47;;;;;;;13.17;92.38;96834.53;5041183;28;20199;-52
2022/05/05 06:16:31;;;;;;;5.33;4.93;;;;;;;13.24;91.40;96844.41;5040719;28;20200;-52
2022/05/05 06:18:58;;;;;;;5.53;4.90;;;;;;;13.23;91.27;96839.22;5040990;28;20214;-51
2022/05/05 06:21:25;;;;;;;4.87;4.43;;;;;;;13.27;92.61;96848.56;5043087;28;20196;-50
2022/05/05 06:23:52;;;;;;;5.73;4.80;;;;;;;13.32;92.81;96848.94;5042069;28;20210;-52
2022/05/05 06:26:21;;;;;;;5.20;4.70;;;;;;;13.28;94.66;96858.22;5041689;28;20208;-50
2022/05/05 06:28:48;;;;;;;5.73;5.33;;;;;;;13.30;95.63;96850.91;5044068;28;20198;-51
2022/05/05 06:31:16;;;;;;;6.70;5.50;;;;;;;13.32;94.51;96859.56;5044426;28;20335;-51
2022/05/05 06:33:43;;;;;;;5.97;5.50;;;;;;;13.37;94.00;96857.25;5045001;28;20199;-51
2022/05/05 06:36:10;;;;;;;5.83;5.40;;;;;;;13.37;96.50;96862.56;5067287;28;20231;-51
2022/05/05 06:38:36;;;;;;;5.70;5.20;;;;;;;13.39;97.39;96865.94;5066844;28;20179;-50
2022/05/05 06:41:02;;;;;;;5.90;5.40;;;;;;;13.42;96.52;96865.63;5064297;28;20223;-51
2022/05/05 06:43:31;;;;;;;6.27;5.77;;;;;;;13.40;96.89;96863.09;5045894;28;20207;-51
2022/05/05 06:45:59;;;;;;;5.83;5.43;;;;;;;13.49;95.52;96861.34;5043576;28;20705;-52
2022/05/05 06:48:26;;;;;;;5.70;5.30;;;;;;;13.51;95.18;96863.84;5044323;28;20651;-52
2022/05/05 06:50:52;;;;;;;5.97;5.43;;;;;;;13.50;94.04;96863.00;5043738;28;20216;-51
2022/05/05 06:53:19;;;;;;;5.83;5.17;;;;;;;13.51;94.97;96864.66;5043750;28;20226;-55
2022/05/05 06:55:46;;;;;;;5.73;5.30;;;;;;;13.53;94.78;96860.06;5044123;28;20226;-52
2022/05/05 06:58:13;;;;;;;5.50;5.00;;;;;;;13.59;94.24;96856.75;5043964;28;20208;-51
2022/05/05 07:03:27;;;;;;;6.10;5.60;;;;;;;13.62;94.05;96859.09;5045054;28;20214;-51
2022/05/05 07:05:54;;;;;;;5.70;5.30;;;;;;;13.65;94.18;96866.75;5045486;28;20559;-50
2022/05/05 07:08:21;;;;;;;6.10;5.60;;;;;;;13.75;95.31;96861.31;5043969;28;20204;-51
2022/05/05 07:10:53;;;;;;;7.63;6.90;;;;;;;13.77;94.56;96864.69;5044793;28;20736;-50
2022/05/05 07:13:20;;;;;;;7.90;7.33;;;;;;;13.82;94.61;96862.38;5035717;28;20199;-50
2022/05/05 07:15:49;;;;;;;9.50;8.70;;;;;;;13.80;93.41;96865.19;5045779;28;20227;-52
2022/05/05 07:18:15;;;;;;;9.07;8.37;;;;;;;13.74;93.93;96871.16;5044843;28;20199;-51
2022/05/05 07:20:42;;;;;;;9.47;8.67;;;;;;;13.81;94.56;96876.66;5043958;28;20716;-50
2022/05/05 07:23:12;;;;;;;9.87;9.07;;;;;;;13.80;94.21;96872.34;5043801;28;20237;-51
2022/05/05 07:25:39;;;;;;;8.90;8.20;;;;;;;13.76;94.58;96874.47;5043424;28;20200;-52
2022/05/05 07:28:06;;;;;;;8.63;8.00;;;;;;;13.83;93.68;96872.00;5044171;28;20199;-52
2022/05/05 07:30:34;;;;;;;8.80;8.10;;;;;;;13.80;93.85;96870.50;5043451;28;20250;-49
2022/05/05 07:33:04;;;;;;;9.03;8.30;;;;;;;13.79;93.22;96874.16;5042953;28;20195;-52
2022/05/05 07:35:31;;;;;;;9.17;8.37;;;;;;;13.76;92.88;96877.13;5044337;28;20219;-51
2022/05/05 07:37:59;;;;;;;9.87;8.80;;;;;;;13.74;93.46;96873.81;5043199;28;20254;-50
2022/05/05 07:40:27;;;;;;;8.80;8.20;;;;;;;13.81;93.23;96877.50;5042934;28;20199;-51
2022/05/05 07:42:54;;;;;;;10.57;9.50;;;;;;;13.77;91.73;96880.63;5043732;28;20204;-50
2022/05/05 07:45:21;;;;;;;9.90;9.10;;;;;;;13.68;92.00;96882.38;5043536;28;20207;-52
2022/05/05 07:47:47;;;;;;;9.87;8.90;;;;;;;13.66;92.41;96872.91;5043372;28;20208;-51
2022/05/05 07:50:15;;;;;;;9.90;8.90;;;;;;;13.69;93.79;96878.75;5042829;28;20223;-51
2022/05/05 07:52:42;;;;;;;10.53;9.63;;;;;;;13.70;93.37;96879.59;5043298;28;20231;-53
2022/05/05 07:55:10;;;;;;;10.27;9.30;;;;;;;13.74;93.59;96883.59;5043263;28;20318;-50
2022/05/05 07:57:46;;;;;;;10.17;9.27;;;;;;;13.77;94.41;96886.78;5044588;28;20191;-51
2022/05/05 08:00:14;;;;;;;10.90;9.90;;;;;;;13.77;96.48;96886.78;5042347;28;21335;-51
2022/05/05 08:02:42;;;;;;;11.70;9.13;;;;;;;13.72;93.96;96886.41;5042052;28;20218;-52
2022/05/05 08:05:12;;;;;;;9.17;8.47;;;;;;;13.79;95.06;96884.78;5042032;28;20581;-53
2022/05/05 08:07:42;;;;;;;10.73;9.83;;;;;;;13.82;94.74;96884.47;5042932;28;20229;-52
2022/05/05 08:10:10;;;;;;;10.27;9.47;;;;;;;13.83;95.07;96891.47;5042230;28;22123;-53
2022/05/05 08:12:36;;;;;;;9.93;8.93;;;;;;;13.92;94.80;96889.69;5042305;28;21302;-52
2022/05/05 08:15:05;;;;;;;9.30;8.50;;;;;;;13.91;94.16;96890.69;5042275;28;20203;-52
2022/05/05 08:17:33;;;;;;;9.77;8.87;;;;;;;13.91;93.91;96894.19;5043186;28;20235;-51
2022/05/05 08:20:02;;;;;;;9.30;8.50;;;;;;;14.00;93.54;96896.84;5043026;28;20215;-51
2022/05/05 08:22:29;;;;;;;9.53;8.53;;;;;;;13.98;95.11;96891.72;5032911;28;20203;-52
2022/05/05 08:30:26;;;;;;;9.87;9.10;;;;;;;14.11;91.79;96899.25;5045897;28;20222;-50
2022/05/05 08:32:53;;;;;;;9.93;9.13;;;;;;;14.05;91.89;96905.22;5047043;28;20207;-52
2022/05/05 08:35:22;;;;;;;10.27;9.37;;;;;;;14.01;91.56;96903.84;5045164;28;20200;-51
2022/05/05 08:37:50;;;;;;;9.83;8.87;;;;;;;14.02;92.39;96908.19;5045526;28;20301;-52
2022/05/05 08:40:18;;;;;;;10.23;9.43;;;;;;;13.98;93.69;96904.16;5044034;28;20203;-54
2022/05/05 08:42:46;;;;;;;10.07;9.27;;;;;;;14.04;94.10;96914.16;5044206;28;20681;-57
2022/05/05 08:45:12;;;;;;;10.70;9.77;;;;;;;14.03;94.87;96909.88;5042635;28;20238;-53
2022/05/05 08:47:40;;;;;;;10.10;9.30;;;;;;;14.03;95.58;96912.53;5047597;28;20195;-50
2022/05/05 08:50:09;;;;;;;9.63;8.87;;;;;;;14.14;94.25;96909.56;5068516;28;20199;-51
2022/05/05 08:52:36;;;;;;;10.50;9.60;;;;;;;14.17;93.99;96919.91;5061066;28;20187;-51
2022/05/05 08:55:05;;;;;;;9.47;8.57;;;;;;;14.22;93.62;96913.13;5054468;28;20202;-51
2022/05/05 08:57:35;;;;;;;9.30;8.50;;;;;;;14.26;91.46;96916.28;5042818;28;20207;-51
2022/05/05 09:00:05;;;;;;;9.37;8.57;;;;;;;14.34;92.98;96919.03;5042237;28;20203;-50
2022/05/05 09:02:31;;;;;;;9.20;8.30;;;;;;;14.38;91.69;96913.22;5042039;28;20195;-51
2022/05/05 09:04:58;;;;;;;8.17;7.47;;;;;;;14.51;90.08;96912.78;5041170;28;20243;-53
2022/05/05 09:07:46;;;;;;;8.37;7.57;;;;;;;14.56;91.23;96909.63;5042082;28;20200;-51
2022/05/05 09:10:13;;;;;;;7.40;6.80;;;;;;;14.59;90.35;96911.97;5041044;28;20200;-51
2022/05/05 09:12:41;;;;;;;7.70;7.10;;;;;;;14.57;87.99;96911.28;5040993;28;20581;-51
2022/05/05 09:15:09;;;;;;;7.40;6.90;;;;;;;14.56;89.91;96915.78;5041237;28;20199;-51
2022/05/05 09:17:36;;;;;;;7.20;6.60;;;;;;;14.63;87.32;96916.78;5041769;28;20303;-51
2022/05/05 09:20:04;;;;;;;7.83;7.13;;;;;;;14.63;87.89;96919.44;5041714;28;20199;-51
2022/05/05 09:22:31;;;;;;;7.27;6.73;;;;;;;14.53;86.21;96913.44;5042148;28;20214;-52
2022/05/05 09:25:01;;;;;;;8.67;7.33;;;;;;;14.48;88.55;96910.44;5041531;28;20206;-52
2022/05/05 09:27:28;;;;;;;7.63;7.13;;;;;;;14.63;91.14;96919.44;5030382;28;20210;-51
2022/05/05 09:30:06;;;;;;;8.47;7.77;;;;;;;14.78;89.24;96922.34;5041407;28;20199;-51
2022/05/05 09:32:35;;;;;;;7.03;6.53;;;;;;;14.80;89.83;96921.19;5042042;28;20207;-51
2022/05/05 09:35:03;;;;;;;7.33;6.63;;;;;;;14.81;88.48;96924.66;5040808;28;20200;-51
2022/05/05 09:37:31;;;;;;;7.70;7.10;;;;;;;14.77;87.00;96920.69;5040580;28;20215;-52
2022/05/05 09:39:58;;;;;;;7.50;6.90;;;;;;;14.82;87.68;96916.53;5041151;28;20586;-50
2022/05/05 09:42:39;;;;;;;8.27;7.67;;;;;;;14.98;89.45;96920.22;5041412;28;20191;-52
2022/05/05 09:45:30;;;;;;;7.10;6.60;;;;;;;15.11;88.64;96925.91;5041351;28;20960;-51
2022/05/05 09:47:59;;;;;;;7.17;6.57;;;;;;;15.14;88.32;96921.09;5040992;28;20192;-51
2022/05/05 09:50:29;;;;;;;7.27;6.67;;;;;;;15.11;87.88;96915.25;5040393;28;20200;-51
2022/05/05 09:58:30;;;;;;;7.53;7.03;;;;;;;14.93;90.28;96916.22;5041742;28;20221;-50
2022/05/05 10:01:05;;;;;;;7.70;7.20;;;;;;;14.84;89.73;96917.19;5042819;28;20208;-51
2022/05/05 10:06:25;;;;;;;8.17;7.37;;;;;;;14.99;85.50;96916.56;5046146;28;20202;-52
2022/05/05 10:08:53;;;;;;;7.80;7.20;;;;;;;14.93;87.47;96916.22;5045328;28;20689;-51
2022/05/05 10:11:19;;;;;;;7.40;6.90;;;;;;;14.89;87.24;96914.88;5046852;28;20315;-51
2022/05/05 10:13:47;;;;;;;7.07;6.57;;;;;;;14.80;85.46;96910.53;5046691;28;20207;-50
2022/05/05 10:16:18;;;;;;;7.67;7.07;;;;;;;14.80;85.99;96923.03;5047077;28;20307;-51
2022/05/05 10:18:44;;;;;;;7.40;6.90;;;;;;;14.72;88.88;96920.31;5046119;28;20195;-52
2022/05/05 10:21:17;;;;;;;8.20;7.60;;;;;;;14.71;88.51;96919.50;5046482;28;20206;-52
2022/05/05 10:23:55;;;;;;;7.53;7.03;;;;;;;14.79;87.29;96916.84;5047237;28;20534;-51
2022/05/05 10:26:23;;;;;;;8.27;7.47;;;;;;;14.67;87.99;96917.31;5047491;28;20199;-50
2022/05/05 10:28:50;;;;;;;7.53;7.03;;;;;;;14.60;88.66;96917.13;5051655;28;20242;-52
2022/05/05 10:31:49;;;;;;;7.80;7.10;;;;;;;14.71;88.43;96914.16;5054469;28;20681;-50
2022/05/05 10:34:19;;;;;;;7.90;7.20;;;;;;;14.62;88.81;96915.16;5042968;28;20211;-51
2022/05/05 10:36:59;;;;;;;7.83;7.13;;;;;;;14.83;89.80;96915.53;5044490;28;20207;-50
2022/05/05 10:39:27;;;;;;;8.30;7.70;;;;;;;14.90;89.85;96905.91;5044158;28;20296;-51
2022/05/05 10:42:15;;;;;;;7.83;7.23;;;;;;;14.87;88.51;96906.25;5044131;28;20211;-53
2022/05/05 10:45:06;;;;;;;8.00;7.30;;;;;;;15.02;90.21;96905.59;5044504;28;20211;-50
2022/05/05 10:48:17;;;;;;;8.80;7.90;;;;;;;15.06;89.87;96902.41;5045855;28;20203;-51
2022/05/05 10:50:57;;;;;;;8.00;7.40;;;;;;;15.11;89.13;96901.94;5029941;28;20405;-50
2022/05/05 10:53:32;;;;;;;8.03;7.33;;;;;;;15.06;89.01;96893.59;5044813;28;20192;-52
2022/05/05 10:56:02;;;;;;;8.07;7.47;;;;;;;15.17;88.96;96893.28;5046622;28;20194;-51
2022/05/05 10:58:57;;;;;;;7.77;7.27;;;;;;;15.28;88.80;96890.28;5046054;28;20196;-52
2022/05/05 11:01:24;;;;;;;7.87;7.27;;;;;;;15.34;87.47;96895.78;5054213;28;20202;-51
2022/05/05 11:04:08;;;;;;;8.57;7.97;;;;;;;15.26;86.22;96887.81;5066220;28;20211;-51
2022/05/05 11:06:38;;;;;;;8.37;7.77;;;;;;;15.33;87.94;96885.31;5067834;28;20213;-51
2022/05/05 11:09:09;;;;;;;8.43;7.83;;;;;;;15.52;88.81;96887.66;5057651;28;20192;-50
2022/05/05 11:11:44;;;;;;;8.30;7.50;;;;;;;15.53;88.22;96899.97;5063768;28;20227;-51
2022/05/05 11:23:06;;;;;;;8.27;7.60;;;;;;;15.67;86.01;96890.47;5043942;28;20229;-51
2022/05/05 11:25:34;;;;;;;7.70;7.17;;;;;;;15.59;86.34;96896.63;5054456;28;20211;-51
2022/05/05 11:28:01;;;;;;;8.13;7.50;;;;;;;15.54;87.72;96891.00;5057803;28;20195;-51
2022/05/05 11:30:30;;;;;;;8.10;7.47;;;;;;;15.52;88.44;96890.31;5057677;28;20215;-51
2022/05/05 11:33:00;;;;;;;8.33;7.63;;;;;;;15.60;87.06;96884.97;5043293;28;20227;-51
2022/05/05 11:35:27;;;;;;;7.67;6.97;;;;;;;15.69;86.62;96889.31;5044045;28;20258;-51
2022/05/05 11:37:53;;;;;;;7.50;6.93;;;;;;;15.65;86.72;96888.00;5043603;28;20247;-51
2022/05/05 11:40:23;;;;;;;7.93;7.23;;;;;;;15.72;86.29;96883.66;5043906;28;20207;-50
2022/05/05 11:45:37;;;;;;;7.83;7.23;;;;;;;15.62;86.93;96876.84;5053691;28;20214;-50
2022/05/05 11:48:15;;;;;;;7.73;7.13;;;;;;;15.61;88.24;96875.16;5053134;28;20269;-50
2022/05/05 11:50:44;;;;;;;7.78;7.18;;;;;;;15.68;88.39;96881.47;5043782;28;20207;-51
2022/05/05 11:53:15;;;;;;;7.80;7.30;;;;;;;15.69;87.44;96867.16;5043336;28;20231;-51
2022/05/05 11:55:44;;;;;;;8.00;7.40;;;;;;;15.57;89.38;96868.50;5045468;28;20188;-51
2022/05/05 11:58:15;;;;;;;8.43;7.82;;;;;;;15.57;88.72;96868.50;5061163;28;20187;-50
2022/05/05 12:03:26;;;;;;;7.80;7.30;;;;;;;15.53;88.84;96862.66;5046839;28;20198;-52
2022/05/05 12:05:53;;;;;;;8.10;7.40;;;;;;;15.55;88.37;96855.34;5047090;28;20208;-51
2022/05/05 12:08:20;;;;;;;7.93;7.33;;;;;;;15.65;87.82;96861.34;5046152;28;20234;-51
2022/05/05 12:10:51;;;;;;;8.03;7.43;;;;;;;15.57;87.59;96872.00;5045650;28;20203;-51
2022/05/05 12:13:18;;;;;;;7.97;7.27;;;;;;;15.62;89.54;96866.16;5045153;28;20223;-51
2022/05/05 12:15:46;;;;;;;7.40;6.90;;;;;;;15.68;86.39;96858.31;5044807;28;20211;-51
2022/05/05 12:18:16;;;;;;;7.63;7.03;;;;;;;15.75;86.33;96856.66;5044435;28;20202;-50
2022/05/05 12:20:45;;;;;;;7.43;6.70;;;;;;;15.93;85.61;96857.28;5042304;28;20199;-51
2022/05/05 12:23:13;;;;;;;7.38;6.78;;;;;;;16.11;84.56;96850.88;5042934;28;20261;-52